S 386 Casilo — OZZP — position and weather

sailwx.info

Track history (hours):
 
Tides and Currents Weather Stations Pressure Air Temp Water Temp Dewpoint Dewpoint Depression Visibility Wind Speed Wind Dir Waves Ship Positions

S 386 Casilo

Last reported at 2016-Apr-28 09:25 UTC. Time now 2016-Apr-28 23:50 UTC.
Position N 57°50' E 010°41'.

Length 24 m.

Type: Fishing. MMSI: 219948000.

Date/timePositionNaut miles runAvg speedWind from/ knotsBaromVisibWave heightAir tempDewpointWater temp
2016-Apr-28 09:25N 57°50' E 010°41'8 8.9
2016-Apr-28 08:34N 57°57' E 010°42'8 7.8
2016-Apr-28 07:34N 58°05' E 010°42'1 1.2
2016-Apr-28 06:34N 58°06' E 010°41'2 1.9
2016-Apr-28 05:34N 58°08' E 010°39'2 1.9
2016-Apr-28 04:34N 58°09' E 010°36'2 1.9
2016-Apr-28 03:34N 58°10' E 010°33'2 1.9
2016-Apr-28 02:33N 58°11' E 010°30'2 1.9
2016-Apr-28 01:33N 58°12' E 010°27'2 1.9
2016-Apr-28 00:33N 58°12' E 010°23'2 2.0
2016-Apr-27 23:23N 58°12' E 010°19'2 2.0
2016-Apr-27 22:29N 58°11' E 010°16'5 1.1
2016-Apr-27 17:31N 58°12' E 010°06'17 1.7
2016-Apr-27 07:26N 58°29' E 010°11'9 9.1
2016-Apr-27 06:28N 58°36' E 010°19'8 8.6
2016-Apr-27 05:33N 58°44' E 010°13'8 7.9
2016-Apr-27 04:33N 58°49' E 010°03'2 1.6
2016-Apr-27 03:33N 58°49' E 010°06'2 1.9
2016-Apr-27 02:34N 58°49' E 010°09'2 1.9
2016-Apr-27 01:34N 58°49' E 010°13'2 1.8
2016-Apr-27 00:34N 58°48' E 010°16'2 2.0
2016-Apr-26 23:34N 58°46' E 010°17'2 2.0
2016-Apr-26 22:33N 58°45' E 010°19'2 2.0
2016-Apr-26 21:34N 58°43' E 010°22'2 1.9
2016-Apr-26 20:34N 58°42' E 010°25'2 1.9
2016-Apr-26 19:34N 58°41' E 010°27'2 1.9
2016-Apr-26 18:34N 58°39' E 010°29'2 1.9
2016-Apr-26 17:33N 58°38' E 010°32'2 2.0
2016-Apr-26 16:33N 58°36' E 010°33'2 2.3
2016-Apr-26 15:34N 58°34' E 010°34'8 7.6
2016-Apr-26 14:30N 58°38' E 010°21'8 7.2
2016-Apr-26 13:21N 58°43' E 010°09'7 3.8
2016-Apr-26 11:33N 58°49' E 010°02'2 1.7
2016-Apr-26 10:34N 58°50' E 010°05'2 2.0
2016-Apr-26 09:34N 58°50' E 010°09'2 1.9
2016-Apr-26 08:34N 58°49' E 010°12'2 1.9
2016-Apr-26 07:33N 58°48' E 010°15'2 1.9
2016-Apr-26 06:33N 58°46' E 010°17'2 2.1
2016-Apr-26 05:34N 58°45' E 010°19'2 2.2
2016-Apr-26 04:33N 58°43' E 010°22'2 2.1
2016-Apr-26 03:34N 58°42' E 010°25'2 2.1
2016-Apr-26 02:34N 58°40' E 010°28'2 2.1
2016-Apr-26 01:34N 58°38' E 010°30'2 2.1
2016-Apr-26 00:34N 58°36' E 010°31'2 2.1
2016-Apr-25 23:34N 58°35' E 010°33'2 2.0
2016-Apr-25 22:32N 58°35' E 010°29'8 8.6
2016-Apr-25 21:33N 58°40' E 010°17'11 8.8
2016-Apr-25 20:18N 58°49' E 010°03'1 1.5
2016-Apr-25 19:33N 58°49' E 010°05'2 2.0
2016-Apr-25 18:34N 58°50' E 010°08'2 2.0
2016-Apr-25 17:34N 58°49' E 010°12'2 1.9
2016-Apr-25 16:33N 58°47' E 010°15'2 1.9
2016-Apr-25 15:33N 58°46' E 010°17'2 1.9
2016-Apr-25 14:34N 58°44' E 010°19'2 2.0
2016-Apr-25 13:34N 58°43' E 010°21'2 2.0
2016-Apr-25 12:34N 58°41' E 010°23'2 2.0
2016-Apr-25 11:33N 58°39' E 010°26'2 2.1
2016-Apr-25 10:34N 58°38' E 010°27'2 2.1
2016-Apr-25 09:34N 58°36' E 010°29'2 2.1
2016-Apr-25 08:34N 58°34' E 010°32'2 2.3
2016-Apr-25 07:33N 58°32' E 010°35'8 7.8
2016-Apr-25 06:34N 58°28' E 010°47'10 9.7
2016-Apr-25 05:34N 58°22' E 011°01'7 6.7
2016-Apr-25 04:33N 58°21' E 011°14'0 0.2
2016-Apr-25 03:34N 58°21' E 011°14'2 1.9
2016-Apr-25 02:34N 58°19' E 011°13'8 7.8
2016-Apr-25 01:34N 58°24' E 011°01'9 9.2
2016-Apr-25 00:34N 58°31' E 010°49'9 8.7
2016-Apr-24 23:34N 58°36' E 010°36'9 8.6
2016-Apr-24 22:34N 58°42' E 010°24'9 8.5
2016-Apr-24 21:32N 58°48' E 010°12'1 0.6
2016-Apr-24 20:34N 58°48' E 010°13'2 1.9
2016-Apr-24 19:33N 58°46' E 010°15'2 1.9
2016-Apr-24 18:34N 58°45' E 010°17'2 1.9
2016-Apr-24 17:34N 58°43' E 010°18'2 1.9
2016-Apr-24 16:33N 58°41' E 010°20'2 1.9
2016-Apr-24 15:34N 58°40' E 010°23'2 1.9
2016-Apr-24 14:33N 58°39' E 010°26'2 2.0
2016-Apr-24 13:34N 58°37' E 010°27'2 2.0
2016-Apr-24 12:34N 58°35' E 010°28'2 2.4
2016-Apr-24 11:34N 58°33' E 010°30'7 7.1
2016-Apr-24 10:34N 58°38' E 010°21'14 6.8
2016-Apr-24 08:33N 58°49' E 010°04'2 1.7
2016-Apr-24 07:34N 58°49' E 010°07'2 1.9
2016-Apr-24 06:34N 58°49' E 010°11'2 2.0
2016-Apr-24 05:33N 58°47' E 010°14'2 2.0
2016-Apr-24 04:34N 58°46' E 010°17'2 2.0
2016-Apr-24 03:34N 58°45' E 010°19'2 2.0
2016-Apr-24 02:34N 58°43' E 010°21'2 2.0
2016-Apr-24 01:34N 58°41' E 010°23'2 2.0
2016-Apr-24 00:34N 58°40' E 010°25'2 2.0
2016-Apr-23 23:34N 58°38' E 010°27'2 2.0
2016-Apr-23 22:33N 58°36' E 010°29'2 2.0
2016-Apr-23 21:34N 58°34' E 010°31'2 2.4
2016-Apr-23 20:34N 58°32' E 010°33'8 7.8
2016-Apr-23 19:33N 58°37' E 010°21'9 9.2
2016-Apr-23 18:34N 58°45' E 010°11'3 2.6
2016-Apr-23 17:34N 58°47' E 010°10'2 2.0
2016-Apr-23 16:33N 58°46' E 010°13'2 2.0
2016-Apr-23 15:33N 58°44' E 010°15'2 2.0
2016-Apr-23 14:33N 58°43' E 010°17'2 2.0
2016-Apr-23 13:34N 58°41' E 010°21'2 2.0
2016-Apr-23 12:34N 58°40' E 010°24'2 2.0
2016-Apr-23 11:34N 58°39' E 010°25'2 1.9
2016-Apr-23 10:34N 58°37' E 010°26'2 1.9
2016-Apr-23 09:34N 58°35' E 010°28'2 2.0
2016-Apr-23 08:33N 58°33' E 010°30'2 2.0
2016-Apr-23 07:33N 58°31' E 010°31'4 4.4
2016-Apr-23 06:34N 58°35' E 010°27'9 8.7
2016-Apr-23 05:34N 58°42' E 010°16'10 8.3
2016-Apr-23 04:22N 58°49' E 010°04'1 1.2
2016-Apr-23 03:34N 58°49' E 010°06'2 1.9
2016-Apr-23 02:34N 58°48' E 010°08'2 2.0
2016-Apr-23 01:34N 58°46' E 010°11'2 2.0
2016-Apr-23 00:33N 58°45' E 010°13'2 2.0
2016-Apr-22 23:34N 58°43' E 010°16'2 1.9
2016-Apr-22 22:34N 58°42' E 010°18'2 2.0
2016-Apr-22 21:33N 58°40' E 010°20'2 2.0
2016-Apr-22 20:33N 58°39' E 010°23'2 2.0
2016-Apr-22 19:34N 58°37' E 010°25'2 2.0
2016-Apr-22 18:34N 58°35' E 010°26'2 2.0
2016-Apr-22 17:34N 58°34' E 010°28'2 2.1
2016-Apr-22 16:34N 58°32' E 010°30'5 5.3
2016-Apr-22 15:34N 58°35' E 010°23'9 9.0
2016-Apr-22 14:34N 58°42' E 010°12'7 6.8
2016-Apr-22 13:33N 58°48' E 010°05'1 1.4
2016-Apr-22 12:34N 58°48' E 010°07'2 2.0
2016-Apr-22 11:34N 58°46' E 010°10'2 2.0
2016-Apr-22 10:33N 58°45' E 010°13'2 2.0
2016-Apr-22 09:34N 58°43' E 010°15'2 2.0
2016-Apr-22 08:34N 58°42' E 010°17'2 2.0
2016-Apr-22 07:34N 58°40' E 010°19'2 2.0
2016-Apr-22 06:33N 58°38' E 010°21'2 2.0
2016-Apr-22 05:33N 58°36' E 010°23'2 2.0
2016-Apr-22 04:34N 58°35' E 010°25'2 2.1
2016-Apr-22 03:32N 58°33' E 010°27'2 2.0
2016-Apr-22 02:33N 58°31' E 010°30'2 2.5
2016-Apr-22 01:34N 58°30' E 010°33'6 0.3
2016-Apr-21 04:11N 58°28' E 010°22'6 9.0
2016-Apr-21 03:33N 58°33' E 010°19'8 8.4
2016-Apr-21 02:34N 58°41' E 010°15'6 6.2
2016-Apr-21 01:34N 58°47' E 010°13'1 0.6
2016-Apr-21 00:34N 58°47' E 010°12'2 1.6
2016-Apr-20 23:33N 58°48' E 010°09'2 1.7
2016-Apr-20 22:33N 58°47' E 010°06'2 1.6
2016-Apr-20 21:33N 58°46' E 010°04'2 1.9
2016-Apr-20 20:33N 58°44' E 010°05'2 2.0
2016-Apr-20 19:34N 58°43' E 010°08'2 2.0
2016-Apr-20 18:34N 58°41' E 010°11'2 2.1
2016-Apr-20 17:34N 58°41' E 010°14'2 2.1
2016-Apr-20 16:34N 58°39' E 010°17'2 2.1
2016-Apr-20 15:34N 58°37' E 010°19'2 2.1
2016-Apr-20 14:34N 58°35' E 010°20'2 2.1
2016-Apr-20 13:34N 58°33' E 010°22'3 2.6
2016-Apr-20 12:34N 58°31' E 010°24'7 7.0
2016-Apr-20 11:33N 58°38' E 010°23'9 8.6
2016-Apr-20 10:33N 58°44' E 010°11'7 7.0
2016-Apr-20 09:34N 58°49' E 010°03'2 1.9
2016-Apr-20 08:34N 58°49' E 010°07'2 2.1
2016-Apr-20 07:34N 58°49' E 010°11'2 2.1
2016-Apr-20 06:34N 58°47' E 010°14'2 2.1
2016-Apr-20 05:34N 58°46' E 010°17'2 2.2
2016-Apr-20 04:34N 58°44' E 010°19'2 2.2
2016-Apr-20 03:34N 58°43' E 010°22'2 2.1
2016-Apr-20 02:34N 58°41' E 010°26'2 2.2
2016-Apr-20 01:34N 58°40' E 010°29'2 2.3
2016-Apr-20 00:34N 58°38' E 010°30'2 2.3
2016-Apr-19 23:33N 58°36' E 010°32'3 2.7
2016-Apr-19 22:33N 58°33' E 010°34'7 7.3
2016-Apr-19 21:33N 58°38' E 010°24'7 7.4
2016-Apr-19 20:34N 58°45' E 010°16'1 1.2
2016-Apr-19 19:34N 58°44' E 010°19'2 2.0
2016-Apr-19 18:34N 58°43' E 010°21'2 2.0
2016-Apr-19 17:33N 58°41' E 010°23'2 2.1
2016-Apr-19 16:34N 58°39' E 010°26'2 2.1
2016-Apr-19 15:34N 58°38' E 010°28'2 2.1
2016-Apr-19 14:34N 58°36' E 010°30'2 2.2
2016-Apr-19 13:33N 58°34' E 010°32'2 2.3
2016-Apr-19 12:33N 58°32' E 010°35'2 2.3
2016-Apr-19 11:34N 58°30' E 010°37'2 2.3
2016-Apr-19 10:34N 58°28' E 010°40'2 2.3
2016-Apr-19 09:34N 58°26' E 010°41'2 2.2
2016-Apr-19 08:34N 58°24' E 010°42'4 4.0
2016-Apr-19 07:34N 58°22' E 010°48'8 8.1
2016-Apr-19 06:33N 58°20' E 011°03'6 6.1
2016-Apr-19 05:33N 58°21' E 011°14'0 0.4
2016-Apr-19 04:33N 58°22' E 011°15'0 0.0
2016-Apr-19 03:33N 58°22' E 011°15'0 0.0
2016-Apr-19 02:34N 58°22' E 011°15'0 0.0
2016-Apr-19 01:34N 58°22' E 011°15'0 0.0
2016-Apr-19 00:34N 58°22' E 011°15'0 0.0
2016-Apr-18 23:34N 58°22' E 011°15'0 0.0
2016-Apr-18 22:34N 58°22' E 011°15'0 0.0
2016-Apr-18 21:34N 58°22' E 011°15'0 0.0
2016-Apr-18 20:34N 58°22' E 011°15'0 0.0
2016-Apr-18 19:34N 58°22' E 011°15'0 0.0
2016-Apr-18 18:34N 58°22' E 011°15'0 0.0
2016-Apr-18 17:34N 58°22' E 011°15'0 0.0
2016-Apr-18 16:34N 58°22' E 011°15'0 0.0
2016-Apr-18 15:34N 58°22' E 011°15'0 0.0
2016-Apr-18 14:34N 58°22' E 011°15'0 0.0
2016-Apr-18 13:33N 58°22' E 011°15'0 0.0
2016-Apr-18 12:34N 58°22' E 011°15'0 0.0
2016-Apr-18 11:33N 58°22' E 011°15'0 0.0
2016-Apr-18 10:34N 58°22' E 011°15'0 0.0
2016-Apr-18 09:34N 58°22' E 011°15'  
Track history (hours):
 
Tides and Currents Weather Stations Pressure Air Temp Water Temp Dewpoint Dewpoint Depression Visibility Wind Speed Wind Dir Waves Ship Positions

S 386 Casilo

Last reported at 2016-Apr-28 09:25 UTC. Time now 2016-Apr-28 23:50 UTC.
Position N 57°50' E 010°41'.

Length 24 m.

Type: Fishing. MMSI: 219948000.

Date/timePositionNaut miles runAvg speedWind from/ knotsBaromVisibWave heightAir tempDewpointWater temp
2016-Apr-28 09:25N 57°50' E 010°41'8 8.9
2016-Apr-28 08:34N 57°57' E 010°42'8 7.8
2016-Apr-28 07:34N 58°05' E 010°42'1 1.2
2016-Apr-28 06:34N 58°06' E 010°41'2 1.9
2016-Apr-28 05:34N 58°08' E 010°39'2 1.9
2016-Apr-28 04:34N 58°09' E 010°36'2 1.9
2016-Apr-28 03:34N 58°10' E 010°33'2 1.9
2016-Apr-28 02:33N 58°11' E 010°30'2 1.9
2016-Apr-28 01:33N 58°12' E 010°27'2 1.9
2016-Apr-28 00:33N 58°12' E 010°23'2 2.0
2016-Apr-27 23:23N 58°12' E 010°19'2 2.0
2016-Apr-27 22:29N 58°11' E 010°16'5 1.1
2016-Apr-27 17:31N 58°12' E 010°06'17 1.7
2016-Apr-27 07:26N 58°29' E 010°11'9 9.1
2016-Apr-27 06:28N 58°36' E 010°19'8 8.6
2016-Apr-27 05:33N 58°44' E 010°13'8 7.9
2016-Apr-27 04:33N 58°49' E 010°03'2 1.6
2016-Apr-27 03:33N 58°49' E 010°06'2 1.9
2016-Apr-27 02:34N 58°49' E 010°09'2 1.9
2016-Apr-27 01:34N 58°49' E 010°13'2 1.8
2016-Apr-27 00:34N 58°48' E 010°16'2 2.0
2016-Apr-26 23:34N 58°46' E 010°17'2 2.0
2016-Apr-26 22:33N 58°45' E 010°19'2 2.0
2016-Apr-26 21:34N 58°43' E 010°22'2 1.9
2016-Apr-26 20:34N 58°42' E 010°25'2 1.9
2016-Apr-26 19:34N 58°41' E 010°27'2 1.9
2016-Apr-26 18:34N 58°39' E 010°29'2 1.9
2016-Apr-26 17:33N 58°38' E 010°32'2 2.0
2016-Apr-26 16:33N 58°36' E 010°33'2 2.3
2016-Apr-26 15:34N 58°34' E 010°34'8 7.6
2016-Apr-26 14:30N 58°38' E 010°21'8 7.2
2016-Apr-26 13:21N 58°43' E 010°09'7 3.8
2016-Apr-26 11:33N 58°49' E 010°02'2 1.7
2016-Apr-26 10:34N 58°50' E 010°05'2 2.0
2016-Apr-26 09:34N 58°50' E 010°09'2 1.9
2016-Apr-26 08:34N 58°49' E 010°12'2 1.9
2016-Apr-26 07:33N 58°48' E 010°15'2 1.9
2016-Apr-26 06:33N 58°46' E 010°17'2 2.1
2016-Apr-26 05:34N 58°45' E 010°19'2 2.2
2016-Apr-26 04:33N 58°43' E 010°22'2 2.1
2016-Apr-26 03:34N 58°42' E 010°25'2 2.1
2016-Apr-26 02:34N 58°40' E 010°28'2 2.1
2016-Apr-26 01:34N 58°38' E 010°30'2 2.1
2016-Apr-26 00:34N 58°36' E 010°31'2 2.1
2016-Apr-25 23:34N 58°35' E 010°33'2 2.0
2016-Apr-25 22:32N 58°35' E 010°29'8 8.6
2016-Apr-25 21:33N 58°40' E 010°17'11 8.8
2016-Apr-25 20:18N 58°49' E 010°03'1 1.5
2016-Apr-25 19:33N 58°49' E 010°05'2 2.0
2016-Apr-25 18:34N 58°50' E 010°08'2 2.0
2016-Apr-25 17:34N 58°49' E 010°12'2 1.9
2016-Apr-25 16:33N 58°47' E 010°15'2 1.9
2016-Apr-25 15:33N 58°46' E 010°17'2 1.9
2016-Apr-25 14:34N 58°44' E 010°19'2 2.0
2016-Apr-25 13:34N 58°43' E 010°21'2 2.0
2016-Apr-25 12:34N 58°41' E 010°23'2 2.0
2016-Apr-25 11:33N 58°39' E 010°26'2 2.1
2016-Apr-25 10:34N 58°38' E 010°27'2 2.1
2016-Apr-25 09:34N 58°36' E 010°29'2 2.1
2016-Apr-25 08:34N 58°34' E 010°32'2 2.3
2016-Apr-25 07:33N 58°32' E 010°35'8 7.8
2016-Apr-25 06:34N 58°28' E 010°47'10 9.7
2016-Apr-25 05:34N 58°22' E 011°01'7 6.7
2016-Apr-25 04:33N 58°21' E 011°14'0 0.2
2016-Apr-25 03:34N 58°21' E 011°14'2 1.9
2016-Apr-25 02:34N 58°19' E 011°13'8 7.8
2016-Apr-25 01:34N 58°24' E 011°01'9 9.2
2016-Apr-25 00:34N 58°31' E 010°49'9 8.7
2016-Apr-24 23:34N 58°36' E 010°36'9 8.6
2016-Apr-24 22:34N 58°42' E 010°24'9 8.5
2016-Apr-24 21:32N 58°48' E 010°12'1 0.6
2016-Apr-24 20:34N 58°48' E 010°13'2 1.9
2016-Apr-24 19:33N 58°46' E 010°15'2 1.9
2016-Apr-24 18:34N 58°45' E 010°17'2 1.9
2016-Apr-24 17:34N 58°43' E 010°18'2 1.9
2016-Apr-24 16:33N 58°41' E 010°20'2 1.9
2016-Apr-24 15:34N 58°40' E 010°23'2 1.9
2016-Apr-24 14:33N 58°39' E 010°26'2 2.0
2016-Apr-24 13:34N 58°37' E 010°27'2 2.0
2016-Apr-24 12:34N 58°35' E 010°28'2 2.4
2016-Apr-24 11:34N 58°33' E 010°30'7 7.1
2016-Apr-24 10:34N 58°38' E 010°21'14 6.8
2016-Apr-24 08:33N 58°49' E 010°04'2 1.7
2016-Apr-24 07:34N 58°49' E 010°07'2 1.9
2016-Apr-24 06:34N 58°49' E 010°11'2 2.0
2016-Apr-24 05:33N 58°47' E 010°14'2 2.0
2016-Apr-24 04:34N 58°46' E 010°17'2 2.0
2016-Apr-24 03:34N 58°45' E 010°19'2 2.0
2016-Apr-24 02:34N 58°43' E 010°21'2 2.0
2016-Apr-24 01:34N 58°41' E 010°23'2 2.0
2016-Apr-24 00:34N 58°40' E 010°25'2 2.0
2016-Apr-23 23:34N 58°38' E 010°27'2 2.0
2016-Apr-23 22:33N 58°36' E 010°29'2 2.0
2016-Apr-23 21:34N 58°34' E 010°31'2 2.4
2016-Apr-23 20:34N 58°32' E 010°33'8 7.8
2016-Apr-23 19:33N 58°37' E 010°21'9 9.2
2016-Apr-23 18:34N 58°45' E 010°11'3 2.6
2016-Apr-23 17:34N 58°47' E 010°10'2 2.0
2016-Apr-23 16:33N 58°46' E 010°13'2 2.0
2016-Apr-23 15:33N 58°44' E 010°15'2 2.0
2016-Apr-23 14:33N 58°43' E 010°17'2 2.0
2016-Apr-23 13:34N 58°41' E 010°21'2 2.0
2016-Apr-23 12:34N 58°40' E 010°24'2 2.0
2016-Apr-23 11:34N 58°39' E 010°25'2 1.9
2016-Apr-23 10:34N 58°37' E 010°26'2 1.9
2016-Apr-23 09:34N 58°35' E 010°28'2 2.0
2016-Apr-23 08:33N 58°33' E 010°30'2 2.0
2016-Apr-23 07:33N 58°31' E 010°31'4 4.4
2016-Apr-23 06:34N 58°35' E 010°27'9 8.7
2016-Apr-23 05:34N 58°42' E 010°16'10 8.3
2016-Apr-23 04:22N 58°49' E 010°04'1 1.2
2016-Apr-23 03:34N 58°49' E 010°06'2 1.9
2016-Apr-23 02:34N 58°48' E 010°08'2 2.0
2016-Apr-23 01:34N 58°46' E 010°11'2 2.0
2016-Apr-23 00:33N 58°45' E 010°13'2 2.0
2016-Apr-22 23:34N 58°43' E 010°16'2 1.9
2016-Apr-22 22:34N 58°42' E 010°18'2 2.0
2016-Apr-22 21:33N 58°40' E 010°20'2 2.0
2016-Apr-22 20:33N 58°39' E 010°23'2 2.0
2016-Apr-22 19:34N 58°37' E 010°25'2 2.0
2016-Apr-22 18:34N 58°35' E 010°26'2 2.0
2016-Apr-22 17:34N 58°34' E 010°28'2 2.1
2016-Apr-22 16:34N 58°32' E 010°30'5 5.3
2016-Apr-22 15:34N 58°35' E 010°23'9 9.0
2016-Apr-22 14:34N 58°42' E 010°12'7 6.8
2016-Apr-22 13:33N 58°48' E 010°05'1 1.4
2016-Apr-22 12:34N 58°48' E 010°07'2 2.0
2016-Apr-22 11:34N 58°46' E 010°10'2 2.0
2016-Apr-22 10:33N 58°45' E 010°13'2 2.0
2016-Apr-22 09:34N 58°43' E 010°15'2 2.0
2016-Apr-22 08:34N 58°42' E 010°17'2 2.0
2016-Apr-22 07:34N 58°40' E 010°19'2 2.0
2016-Apr-22 06:33N 58°38' E 010°21'2 2.0
2016-Apr-22 05:33N 58°36' E 010°23'2 2.0
2016-Apr-22 04:34N 58°35' E 010°25'2 2.1
2016-Apr-22 03:32N 58°33' E 010°27'2 2.0
2016-Apr-22 02:33N 58°31' E 010°30'2 2.5
2016-Apr-22 01:34N 58°30' E 010°33'6 0.3
2016-Apr-21 04:11N 58°28' E 010°22'6 9.0
2016-Apr-21 03:33N 58°33' E 010°19'8 8.4
2016-Apr-21 02:34N 58°41' E 010°15'6 6.2
2016-Apr-21 01:34N 58°47' E 010°13'1 0.6
2016-Apr-21 00:34N 58°47' E 010°12'2 1.6
2016-Apr-20 23:33N 58°48' E 010°09'2 1.7
2016-Apr-20 22:33N 58°47' E 010°06'2 1.6
2016-Apr-20 21:33N 58°46' E 010°04'2 1.9
2016-Apr-20 20:33N 58°44' E 010°05'2 2.0
2016-Apr-20 19:34N 58°43' E 010°08'2 2.0
2016-Apr-20 18:34N 58°41' E 010°11'2 2.1
2016-Apr-20 17:34N 58°41' E 010°14'2 2.1
2016-Apr-20 16:34N 58°39' E 010°17'2 2.1
2016-Apr-20 15:34N 58°37' E 010°19'2 2.1
2016-Apr-20 14:34N 58°35' E 010°20'2 2.1
2016-Apr-20 13:34N 58°33' E 010°22'3 2.6
2016-Apr-20 12:34N 58°31' E 010°24'7 7.0
2016-Apr-20 11:33N 58°38' E 010°23'9 8.6
2016-Apr-20 10:33N 58°44' E 010°11'7 7.0
2016-Apr-20 09:34N 58°49' E 010°03'2 1.9
2016-Apr-20 08:34N 58°49' E 010°07'2 2.1
2016-Apr-20 07:34N 58°49' E 010°11'2 2.1
2016-Apr-20 06:34N 58°47' E 010°14'2 2.1
2016-Apr-20 05:34N 58°46' E 010°17'2 2.2
2016-Apr-20 04:34N 58°44' E 010°19'2 2.2
2016-Apr-20 03:34N 58°43' E 010°22'2 2.1
2016-Apr-20 02:34N 58°41' E 010°26'2 2.2
2016-Apr-20 01:34N 58°40' E 010°29'2 2.3
2016-Apr-20 00:34N 58°38' E 010°30'2 2.3
2016-Apr-19 23:33N 58°36' E 010°32'3 2.7
2016-Apr-19 22:33N 58°33' E 010°34'7 7.3
2016-Apr-19 21:33N 58°38' E 010°24'7 7.4
2016-Apr-19 20:34N 58°45' E 010°16'1 1.2
2016-Apr-19 19:34N 58°44' E 010°19'2 2.0
2016-Apr-19 18:34N 58°43' E 010°21'2 2.0
2016-Apr-19 17:33N 58°41' E 010°23'2 2.1
2016-Apr-19 16:34N 58°39' E 010°26'2 2.1
2016-Apr-19 15:34N 58°38' E 010°28'2 2.1
2016-Apr-19 14:34N 58°36' E 010°30'2 2.2
2016-Apr-19 13:33N 58°34' E 010°32'2 2.3
2016-Apr-19 12:33N 58°32' E 010°35'2 2.3
2016-Apr-19 11:34N 58°30' E 010°37'2 2.3
2016-Apr-19 10:34N 58°28' E 010°40'2 2.3
2016-Apr-19 09:34N 58°26' E 010°41'2 2.2
2016-Apr-19 08:34N 58°24' E 010°42'4 4.0
2016-Apr-19 07:34N 58°22' E 010°48'8 8.1
2016-Apr-19 06:33N 58°20' E 011°03'6 6.1
2016-Apr-19 05:33N 58°21' E 011°14'0 0.4
2016-Apr-19 04:33N 58°22' E 011°15'0 0.0
2016-Apr-19 03:33N 58°22' E 011°15'0 0.0
2016-Apr-19 02:34N 58°22' E 011°15'0 0.0
2016-Apr-19 01:34N 58°22' E 011°15'0 0.0
2016-Apr-19 00:34N 58°22' E 011°15'0 0.0
2016-Apr-18 23:34N 58°22' E 011°15'0 0.0
2016-Apr-18 22:34N 58°22' E 011°15'0 0.0
2016-Apr-18 21:34N 58°22' E 011°15'0 0.0
2016-Apr-18 20:34N 58°22' E 011°15'0 0.0
2016-Apr-18 19:34N 58°22' E 011°15'0 0.0
2016-Apr-18 18:34N 58°22' E 011°15'0 0.0
2016-Apr-18 17:34N 58°22' E 011°15'0 0.0
2016-Apr-18 16:34N 58°22' E 011°15'0 0.0
2016-Apr-18 15:34N 58°22' E 011°15'0 0.0
2016-Apr-18 14:34N 58°22' E 011°15'0 0.0
2016-Apr-18 13:33N 58°22' E 011°15'0 0.0
2016-Apr-18 12:34N 58°22' E 011°15'0 0.0
2016-Apr-18 11:33N 58°22' E 011°15'0 0.0
2016-Apr-18 10:34N 58°22' E 011°15'0 0.0
2016-Apr-18 09:34N 58°22' E 011°15'  

Dump ship's entire track history